createdAt,value
2023-01-09T00:00:36.073Z,11.70
2023-01-09T00:03:02.876Z,11.70
2023-01-09T00:05:29.550Z,11.70
2023-01-09T00:07:56.292Z,11.70
2023-01-09T00:10:23.057Z,11.60
2023-01-09T00:12:49.852Z,11.60
2023-01-09T00:15:17.183Z,11.60
2023-01-09T00:17:43.881Z,11.60
2023-01-09T00:20:11.543Z,11.50
2023-01-09T00:22:38.466Z,11.50
2023-01-09T00:25:05.901Z,11.30
2023-01-09T00:27:34.220Z,11.40
2023-01-09T00:30:01.486Z,11.40
2023-01-09T00:32:28.708Z,11.40
2023-01-09T00:34:56.253Z,11.40
2023-01-09T00:37:23.295Z,11.30
2023-01-09T00:39:50.047Z,11.30
2023-01-09T00:42:21.874Z,11.20
2023-01-09T00:44:55.803Z,11.20
2023-01-09T00:47:30.959Z,11.20
2023-01-09T00:50:07.731Z,11.10
2023-01-09T00:52:37.968Z,11.10
2023-01-09T00:55:05.730Z,10.90
2023-01-09T00:57:32.546Z,10.90
2023-01-09T00:59:59.875Z,10.80
2023-01-09T01:02:26.885Z,10.90
2023-01-09T01:05:12.619Z,10.80
2023-01-09T01:07:39.391Z,10.80
2023-01-09T01:10:10.385Z,10.80
2023-01-09T01:12:38.676Z,10.80
2023-01-09T01:15:07.138Z,10.80
2023-01-09T01:17:35.552Z,10.70
2023-01-09T01:20:02.649Z,10.60
2023-01-09T01:22:29.348Z,10.60
2023-01-09T01:24:56.026Z,10.50
2023-01-09T01:27:22.724Z,10.50
2023-01-09T01:29:50.716Z,10.50
2023-01-09T01:32:17.453Z,10.40
2023-01-09T01:34:45.817Z,10.40
2023-01-09T01:37:13.650Z,10.30
2023-01-09T01:39:40.403Z,10.20
2023-01-09T01:42:07.626Z,10.20
2023-01-09T01:45:05.219Z,10.10
2023-01-09T01:47:41.246Z,10.20
2023-01-09T01:50:22.259Z,10.10
2023-01-09T01:52:56.876Z,10.10
2023-01-09T01:55:24.127Z,10.10
2023-01-09T01:57:54.786Z,9.90
2023-01-09T02:00:25.895Z,10.00
2023-01-09T02:02:52.747Z,9.90
2023-01-09T02:05:19.669Z,9.80
2023-01-09T02:07:46.392Z,9.90
2023-01-09T02:10:13.194Z,9.90
2023-01-09T02:12:40.194Z,9.90
2023-01-09T02:15:10.765Z,9.90
2023-01-09T02:17:40.476Z,9.90
2023-01-09T02:20:32.527Z,9.90
2023-01-09T02:23:23.876Z,9.90
2023-01-09T02:26:17.714Z,9.90
2023-01-09T02:29:13.538Z,10.00
2023-01-09T02:32:07.024Z,10.00
2023-01-09T02:34:59.357Z,10.00
2023-01-09T02:38:01.796Z,10.00
2023-01-09T02:40:31.717Z,9.90
2023-01-09T02:43:01.234Z,9.80
2023-01-09T02:45:28.237Z,9.80
2023-01-09T02:47:55.037Z,9.80
2023-01-09T02:50:30.850Z,9.80
2023-01-09T02:53:48.587Z,9.70
2023-01-09T02:56:50.468Z,9.70
2023-01-09T02:59:36.483Z,9.80
2023-01-09T03:02:45.512Z,9.80
2023-01-09T03:05:21.280Z,9.70
2023-01-09T03:08:06.603Z,9.80
2023-01-09T03:10:33.728Z,9.70
2023-01-09T03:13:02.391Z,9.70
2023-01-09T03:15:34.264Z,9.70
2023-01-09T03:18:04.155Z,9.70
2023-01-09T03:20:31.410Z,9.70
2023-01-09T03:23:00.956Z,9.60
2023-01-09T03:25:30.078Z,9.60
2023-01-09T03:28:06.213Z,9.40
2023-01-09T03:30:35.283Z,9.60
2023-01-09T03:33:02.149Z,9.50
2023-01-09T03:35:28.937Z,9.50
2023-01-09T03:37:55.902Z,9.50
2023-01-09T03:40:22.637Z,9.40
2023-01-09T03:42:49.383Z,9.60
2023-01-09T03:45:16.158Z,9.50
2023-01-09T03:47:42.894Z,9.60
2023-01-09T03:50:10.242Z,9.50
2023-01-09T03:52:36.945Z,9.50
2023-01-09T03:55:03.981Z,9.50
2023-01-09T03:57:30.734Z,9.50
2023-01-09T03:59:57.415Z,9.40
2023-01-09T04:02:24.143Z,9.50
2023-01-09T04:04:50.913Z,9.40
2023-01-09T04:07:17.635Z,9.40
2023-01-09T04:09:44.319Z,9.40
2023-01-09T04:12:11.030Z,9.30
2023-01-09T04:14:37.736Z,9.30
2023-01-09T04:17:04.426Z,9.30
2023-01-09T04:19:31.205Z,9.30
2023-01-09T04:21:57.891Z,9.20
2023-01-09T04:24:24.591Z,9.20
2023-01-09T04:26:51.258Z,9.10
2023-01-09T04:29:17.927Z,9.10
2023-01-09T04:31:44.719Z,9.40
2023-01-09T04:34:11.486Z,9.10
2023-01-09T04:36:38.698Z,9.00
2023-01-09T04:39:05.526Z,9.00
2023-01-09T04:41:50.680Z,9.00
2023-01-09T04:44:18.400Z,9.00
2023-01-09T04:46:45.423Z,9.00
2023-01-09T04:49:12.101Z,9.00
2023-01-09T04:51:38.877Z,9.10
2023-01-09T04:54:05.768Z,9.10
2023-01-09T04:56:32.481Z,9.20
2023-01-09T04:58:59.179Z,9.20
2023-01-09T05:01:26.010Z,9.30
2023-01-09T05:03:52.867Z,9.20
2023-01-09T05:06:19.605Z,9.30
2023-01-09T05:08:46.338Z,9.40
2023-01-09T05:11:13.010Z,9.40
2023-01-09T05:13:39.890Z,9.40
2023-01-09T05:16:07.256Z,9.50
2023-01-09T05:18:34.181Z,9.50
2023-01-09T05:21:01.104Z,9.40
2023-01-09T05:23:27.983Z,9.50
2023-01-09T05:25:54.726Z,9.50
2023-01-09T05:28:21.506Z,9.50
2023-01-09T05:30:48.624Z,9.50
2023-01-09T05:33:15.341Z,9.60
2023-01-09T05:35:42.073Z,9.60
2023-01-09T05:38:08.818Z,9.70
2023-01-09T05:40:40.441Z,9.70
2023-01-09T05:43:07.653Z,9.70
2023-01-09T05:45:34.810Z,9.60
2023-01-09T05:48:01.622Z,9.70
2023-01-09T05:50:28.690Z,9.70
2023-01-09T05:52:55.437Z,9.60
2023-01-09T05:55:22.365Z,9.50
2023-01-09T05:57:49.146Z,9.50
2023-01-09T06:00:16.351Z,9.60
2023-01-09T06:02:43.181Z,9.60
2023-01-09T06:05:10.013Z,9.70
2023-01-09T06:07:39.891Z,9.70
2023-01-09T06:10:10.320Z,9.70
2023-01-09T06:12:37.456Z,9.70
2023-01-09T06:15:05.562Z,9.70
2023-01-09T06:17:33.111Z,9.80
2023-01-09T06:19:59.947Z,9.80
2023-01-09T06:22:26.639Z,9.80
2023-01-09T06:24:53.361Z,9.80
2023-01-09T06:27:20.052Z,9.80
2023-01-09T06:29:46.787Z,9.90
2023-01-09T06:32:13.550Z,9.90
2023-01-09T06:34:40.274Z,9.90
2023-01-09T06:37:07.018Z,9.90
2023-01-09T06:39:33.815Z,9.90
2023-01-09T06:42:00.599Z,9.90
2023-01-09T06:44:27.354Z,10.00
2023-01-09T06:46:54.085Z,10.10
2023-01-09T06:49:23.532Z,10.00
2023-01-09T06:51:51.359Z,10.10
2023-01-09T06:54:21.587Z,10.10
2023-01-09T06:56:48.338Z,10.20
2023-01-09T06:59:15.157Z,10.10
2023-01-09T07:01:41.995Z,10.20
2023-01-09T07:04:12.341Z,10.20
2023-01-09T07:06:39.361Z,10.30
2023-01-09T07:09:06.226Z,10.30
2023-01-09T07:11:33.195Z,10.30
2023-01-09T07:13:59.972Z,10.30
2023-01-09T07:16:26.798Z,10.30
2023-01-09T07:18:54.703Z,10.30
2023-01-09T07:21:21.544Z,10.20
2023-01-09T07:23:48.315Z,10.20
2023-01-09T07:26:15.055Z,10.20
2023-01-09T07:28:41.773Z,10.20
2023-01-09T07:31:08.548Z,10.20
2023-01-09T07:33:35.482Z,10.30
2023-01-09T07:36:02.301Z,10.30
2023-01-09T07:38:29.143Z,10.40
2023-01-09T07:40:55.874Z,10.30
2023-01-09T07:43:22.636Z,10.40
2023-01-09T07:45:49.324Z,10.30
2023-01-09T07:48:16.043Z,10.30
2023-01-09T07:50:42.699Z,10.30
2023-01-09T07:53:09.426Z,10.30
2023-01-09T07:55:36.187Z,10.30
2023-01-09T07:58:03.045Z,10.40
2023-01-09T08:00:31.821Z,10.40
2023-01-09T08:02:59.731Z,10.50
2023-01-09T08:05:26.600Z,10.40
2023-01-09T08:07:53.392Z,10.50
2023-01-09T08:10:20.530Z,10.50
2023-01-09T08:12:48.583Z,10.60
2023-01-09T08:15:16.560Z,10.60
2023-01-09T08:17:44.884Z,10.70
2023-01-09T08:20:14.147Z,10.70
2023-01-09T08:22:55.488Z,10.70
2023-01-09T08:25:22.309Z,10.70
2023-01-09T08:27:49.137Z,10.60
2023-01-09T08:30:17.099Z,10.70
2023-01-09T08:32:44.148Z,10.70
2023-01-09T08:35:10.957Z,10.70
2023-01-09T08:37:37.658Z,10.70
2023-01-09T08:40:05.345Z,10.70
2023-01-09T08:42:50.618Z,10.80
2023-01-09T08:45:35.897Z,10.70
2023-01-09T08:48:02.696Z,10.80
2023-01-09T08:50:29.433Z,10.80
2023-01-09T08:52:56.245Z,10.80
2023-01-09T08:55:22.972Z,10.80
2023-01-09T08:57:54.000Z,10.80
2023-01-09T09:00:22.688Z,10.80
2023-01-09T09:02:54.247Z,10.90
2023-01-09T09:05:22.156Z,10.90
2023-01-09T09:07:50.230Z,10.90
2023-01-09T09:10:18.176Z,10.90
2023-01-09T09:12:45.162Z,11.20
2023-01-09T09:15:23.921Z,11.00
2023-01-09T09:17:58.536Z,11.00
2023-01-09T09:20:27.826Z,11.00
2023-01-09T09:22:54.550Z,11.00
2023-01-09T09:25:21.934Z,10.90
2023-01-09T09:27:49.483Z,10.40
2023-01-09T09:30:18.454Z,10.90
2023-01-09T09:32:45.823Z,10.90
2023-01-09T09:35:12.928Z,10.90
2023-01-09T09:37:39.935Z,11.00
2023-01-09T09:40:18.312Z,11.00
2023-01-09T09:43:50.992Z,11.10
2023-01-09T09:46:38.901Z,11.20
2023-01-09T09:49:21.408Z,11.20
2023-01-09T09:51:59.463Z,11.20
2023-01-09T09:54:35.126Z,11.20
2023-01-09T09:57:04.300Z,11.20
2023-01-09T09:59:37.034Z,11.20
2023-01-09T10:02:09.790Z,11.10
2023-01-09T10:04:44.443Z,10.90
2023-01-09T10:07:23.590Z,10.80
2023-01-09T10:09:57.501Z,10.70
2023-01-09T10:12:30.162Z,10.60
2023-01-09T10:15:02.314Z,10.60
2023-01-09T10:17:40.979Z,10.70
2023-01-09T10:20:33.489Z,10.70
2023-01-09T10:23:15.737Z,10.80
2023-01-09T10:25:51.370Z,10.70
2023-01-09T10:28:39.777Z,10.90
2023-01-09T10:31:18.318Z,10.90
2023-01-09T10:34:26.282Z,11.10
2023-01-09T10:37:02.393Z,11.40
2023-01-09T10:39:44.992Z,11.50
2023-01-09T10:42:20.010Z,11.70
2023-01-09T10:44:58.068Z,11.60
2023-01-09T10:47:30.283Z,11.70
2023-01-09T10:49:57.545Z,11.80
2023-01-09T10:52:45.027Z,11.80
2023-01-09T10:55:23.905Z,11.80
2023-01-09T10:57:58.075Z,11.80
2023-01-09T11:00:25.605Z,11.80
2023-01-09T11:02:53.661Z,11.90
2023-01-09T11:05:27.741Z,11.70
2023-01-09T11:08:23.094Z,11.80
2023-01-09T11:10:51.560Z,11.70
2023-01-09T11:13:33.356Z,11.80
2023-01-09T11:16:10.022Z,11.90
2023-01-09T11:18:51.596Z,12.10
2023-01-09T11:21:41.756Z,12.20
2023-01-09T11:24:23.974Z,12.40
2023-01-09T11:26:53.138Z,12.30
2023-01-09T11:29:24.277Z,12.30
2023-01-09T11:31:56.751Z,12.40
2023-01-09T11:34:26.157Z,12.30
2023-01-09T11:37:01.223Z,12.40
2023-01-09T11:39:32.872Z,12.40
2023-01-09T11:42:02.480Z,12.40
2023-01-09T11:44:31.374Z,12.50
2023-01-09T11:46:58.384Z,12.70
2023-01-09T11:49:30.175Z,12.80
2023-01-09T11:52:19.497Z,12.70
2023-01-09T11:55:02.904Z,13.40
2023-01-09T11:57:30.189Z,12.70
2023-01-09T12:00:02.402Z,12.70
2023-01-09T12:02:53.233Z,12.70
2023-01-09T12:05:49.974Z,12.70
2023-01-09T12:08:25.791Z,12.60
2023-01-09T12:11:07.851Z,12.60
2023-01-09T12:14:02.076Z,12.40
2023-01-09T12:16:56.621Z,12.20
2023-01-09T12:19:53.388Z,12.20
2023-01-09T12:22:46.151Z,12.30
2023-01-09T12:25:18.367Z,12.10
2023-01-09T12:28:04.963Z,12.00
2023-01-09T12:31:16.846Z,12.10
2023-01-09T12:33:57.517Z,11.90
2023-01-09T12:36:49.400Z,11.70
2023-01-09T12:39:18.934Z,11.70
2023-01-09T12:42:05.121Z,11.40
2023-01-09T12:45:17.279Z,11.50
2023-01-09T12:47:46.948Z,11.20
2023-01-09T12:50:35.268Z,11.10
2023-01-09T12:53:13.948Z,11.20
2023-01-09T12:55:46.506Z,11.40
2023-01-09T12:58:41.252Z,11.50
2023-01-09T13:01:18.545Z,11.70
2023-01-09T13:04:09.597Z,11.80
2023-01-09T13:06:42.834Z,11.70
2023-01-09T13:09:15.048Z,11.90
2023-01-09T13:11:48.804Z,12.00
2023-01-09T13:14:27.170Z,11.90
2023-01-09T13:16:56.972Z,11.90
2023-01-09T13:19:29.071Z,11.80
2023-01-09T13:21:58.085Z,11.90
2023-01-09T13:24:37.211Z,11.90
2023-01-09T13:27:10.960Z,11.80
2023-01-09T13:29:42.329Z,11.80
2023-01-09T13:32:23.356Z,11.90
2023-01-09T13:34:57.341Z,12.00
2023-01-09T13:37:36.528Z,11.90
2023-01-09T13:40:21.630Z,11.90
2023-01-09T13:43:07.571Z,11.80
2023-01-09T13:45:37.458Z,12.00
2023-01-09T13:48:17.828Z,12.00
2023-01-09T13:50:47.060Z,12.10
2023-01-09T13:53:20.121Z,12.10
2023-01-09T13:55:59.621Z,12.10
2023-01-09T13:58:28.455Z,12.10
2023-01-09T14:00:59.556Z,12.10
2023-01-09T14:03:35.541Z,12.10
2023-01-09T14:06:03.829Z,12.10
2023-01-09T14:08:32.135Z,11.90
2023-01-09T14:11:01.924Z,11.90
2023-01-09T14:13:44.398Z,11.70
2023-01-09T14:16:14.242Z,11.90
2023-01-09T14:18:49.902Z,11.90
2023-01-09T14:21:17.571Z,11.80
2023-01-09T14:24:04.404Z,11.80
2023-01-09T14:26:45.003Z,11.80
2023-01-09T14:29:36.033Z,11.80
2023-01-09T14:32:26.017Z,11.90
2023-01-09T14:34:59.098Z,11.90
2023-01-09T14:37:28.464Z,12.00
2023-01-09T14:39:56.593Z,11.90
2023-01-09T14:42:27.314Z,11.90
2023-01-09T14:45:00.849Z,11.90
2023-01-09T14:47:48.489Z,12.00
2023-01-09T14:50:17.479Z,11.90
2023-01-09T14:53:22.761Z,12.00
2023-01-09T14:55:58.210Z,12.10
2023-01-09T14:58:27.886Z,12.10
2023-01-09T15:01:02.422Z,11.90
2023-01-09T15:03:51.375Z,11.90
2023-01-09T15:06:42.438Z,11.90
2023-01-09T15:09:16.469Z,11.90
2023-01-09T15:11:43.555Z,11.70
2023-01-09T15:14:39.877Z,11.70
2023-01-09T15:17:16.625Z,11.70
2023-01-09T15:19:45.813Z,11.70
2023-01-09T15:22:32.910Z,11.60
2023-01-09T15:25:27.334Z,11.50
2023-01-09T15:27:57.780Z,11.60
2023-01-09T15:30:34.046Z,12.50
2023-01-09T15:33:10.152Z,11.40
2023-01-09T15:35:45.799Z,11.40
2023-01-09T15:38:23.525Z,11.40
2023-01-09T15:41:09.632Z,11.30
2023-01-09T15:43:42.067Z,11.20
2023-01-09T15:46:11.879Z,11.20
2023-01-09T15:48:38.723Z,11.20
2023-01-09T15:51:18.371Z,11.10
2023-01-09T15:53:51.722Z,11.20
2023-01-09T15:56:30.315Z,11.10
2023-01-09T15:58:58.815Z,11.10
2023-01-09T16:01:38.075Z,11.10
2023-01-09T16:04:08.920Z,11.10
2023-01-09T16:06:45.320Z,11.10
2023-01-09T16:09:25.990Z,11.20
2023-01-09T16:11:56.396Z,11.20
2023-01-09T16:14:38.205Z,11.30
2023-01-09T16:17:07.792Z,11.40
2023-01-09T16:20:00.004Z,11.40
2023-01-09T16:22:29.223Z,11.40
2023-01-09T16:25:01.539Z,11.50
2023-01-09T16:27:33.956Z,11.50
2023-01-09T16:30:22.142Z,11.60
2023-01-09T16:32:51.392Z,11.60
2023-01-09T16:35:20.955Z,11.60
2023-01-09T16:37:48.096Z,11.60
2023-01-09T16:40:22.097Z,11.60
2023-01-09T16:43:03.437Z,11.50
2023-01-09T16:45:35.074Z,11.50
2023-01-09T16:48:09.603Z,11.40
2023-01-09T16:50:36.736Z,11.40
2023-01-09T16:53:22.625Z,11.30
2023-01-09T16:55:49.743Z,11.40
2023-01-09T16:58:26.553Z,11.30
2023-01-09T17:00:53.356Z,11.30
2023-01-09T17:03:20.417Z,11.30
2023-01-09T17:05:52.835Z,11.30
2023-01-09T17:08:25.803Z,11.30
2023-01-09T17:10:53.876Z,11.50
2023-01-09T17:13:20.707Z,11.40
2023-01-09T17:15:47.707Z,11.40
2023-01-09T17:18:19.779Z,11.40
2023-01-09T17:20:50.043Z,11.40
2023-01-09T17:23:17.276Z,11.40
2023-01-09T17:26:02.681Z,11.40
2023-01-09T17:28:32.799Z,11.30
2023-01-09T17:31:06.231Z,11.30
2023-01-09T17:33:33.618Z,11.20
2023-01-09T17:36:02.476Z,11.10
2023-01-09T17:38:29.561Z,11.00
2023-01-09T17:40:56.323Z,11.00
2023-01-09T17:43:23.051Z,10.90
2023-01-09T17:45:50.419Z,10.90
2023-01-09T17:48:20.725Z,10.90
2023-01-09T17:50:48.870Z,11.00
2023-01-09T17:53:17.672Z,11.00
2023-01-09T17:55:44.423Z,11.10
2023-01-09T17:58:31.225Z,11.10
2023-01-09T18:00:59.611Z,11.30
2023-01-09T18:03:33.222Z,11.30
2023-01-09T18:06:00.365Z,11.30
2023-01-09T18:08:27.295Z,11.40
2023-01-09T18:10:54.656Z,11.30
2023-01-09T18:13:21.668Z,11.40
2023-01-09T18:15:48.580Z,11.60
2023-01-09T18:18:16.275Z,11.50
2023-01-09T18:20:44.356Z,11.50
2023-01-09T18:23:11.871Z,11.60
2023-01-09T18:25:43.300Z,11.70
2023-01-09T18:28:12.433Z,11.70
2023-01-09T18:30:39.166Z,11.70
2023-01-09T18:33:05.874Z,11.60
2023-01-09T18:35:36.482Z,11.50
2023-01-09T18:38:03.226Z,11.50
2023-01-09T18:40:30.042Z,11.30
2023-01-09T18:42:56.755Z,11.30
2023-01-09T18:45:23.466Z,11.20
2023-01-09T18:47:50.274Z,11.10
2023-01-09T18:50:17.186Z,11.10
2023-01-09T18:52:43.999Z,11.20
2023-01-09T18:55:10.838Z,11.20
2023-01-09T18:57:37.583Z,11.20
2023-01-09T19:00:05.171Z,11.20
2023-01-09T19:02:31.909Z,11.30
2023-01-09T19:04:58.631Z,11.30
2023-01-09T19:07:25.311Z,11.30
2023-01-09T19:09:52.030Z,11.30
2023-01-09T19:12:18.717Z,11.30
2023-01-09T19:14:45.556Z,11.30
2023-01-09T19:17:12.403Z,11.30
2023-01-09T19:19:39.208Z,12.00
2023-01-09T19:22:06.015Z,11.10
2023-01-09T19:24:32.995Z,11.10
2023-01-09T19:27:00.411Z,11.10
2023-01-09T19:29:27.844Z,11.10
2023-01-09T19:31:54.643Z,11.10
2023-01-09T19:34:21.517Z,11.00
2023-01-09T19:36:48.371Z,11.00
2023-01-09T19:39:15.331Z,10.90
2023-01-09T19:41:42.313Z,10.90
2023-01-09T19:44:09.494Z,10.90
2023-01-09T19:46:36.558Z,11.00
2023-01-09T19:49:06.669Z,11.00
2023-01-09T19:51:34.081Z,10.90
2023-01-09T19:56:29.672Z,10.90
2023-01-09T19:58:59.026Z,11.70
2023-01-09T20:01:29.345Z,10.90
2023-01-09T20:03:57.655Z,10.80
2023-01-09T20:06:26.360Z,10.90
2023-01-09T20:08:58.051Z,10.80
2023-01-09T20:11:27.197Z,10.80
2023-01-09T20:13:55.584Z,10.80
2023-01-09T20:16:28.428Z,10.70
2023-01-09T20:18:57.806Z,10.60
2023-01-09T20:21:26.336Z,10.60
2023-01-09T20:23:55.458Z,10.40
2023-01-09T20:26:22.961Z,10.40
2023-01-09T20:28:50.149Z,10.40
2023-01-09T20:31:18.449Z,10.40
2023-01-09T20:33:47.310Z,10.30
2023-01-09T20:36:15.428Z,10.30
2023-01-09T20:38:43.115Z,10.30
2023-01-09T20:41:24.196Z,10.40
2023-01-09T20:43:54.575Z,10.50
2023-01-09T20:46:23.295Z,10.40
2023-01-09T20:48:50.117Z,10.40
2023-01-09T20:51:17.370Z,10.40
2023-01-09T20:53:48.341Z,10.50
2023-01-09T20:56:15.069Z,10.50
2023-01-09T20:58:42.356Z,10.60
2023-01-09T21:01:13.634Z,10.50
2023-01-09T21:03:41.226Z,10.50
2023-01-09T21:06:10.608Z,10.50
2023-01-09T21:08:37.642Z,10.50
2023-01-09T21:11:04.914Z,10.50
2023-01-09T21:13:32.323Z,10.50
2023-01-09T21:16:04.370Z,10.40
2023-01-09T21:18:31.900Z,10.30
2023-01-09T21:21:03.813Z,10.30
2023-01-09T21:23:30.522Z,10.30
2023-01-09T21:25:57.361Z,10.20
2023-01-09T21:28:24.912Z,10.20
2023-01-09T21:30:52.789Z,10.20
2023-01-09T21:33:21.471Z,10.30
2023-01-09T21:35:55.496Z,10.20
2023-01-09T21:38:23.439Z,10.20
2023-01-09T21:40:51.385Z,10.10
2023-01-09T21:43:46.599Z,10.20
2023-01-09T21:46:37.215Z,10.30
2023-01-09T21:49:05.221Z,10.20
2023-01-09T21:51:38.671Z,10.20
2023-01-09T21:54:05.485Z,10.20
2023-01-09T21:56:32.149Z,10.50
2023-01-09T21:58:58.883Z,10.30
2023-01-09T22:01:25.641Z,10.20
2023-01-09T22:03:59.248Z,10.30
2023-01-09T22:06:26.482Z,10.20
2023-01-09T22:08:53.236Z,10.30
2023-01-09T22:11:20.000Z,10.30
2023-01-09T22:13:50.932Z,10.20
2023-01-09T22:16:18.926Z,10.30
2023-01-09T22:18:45.880Z,10.30
2023-01-09T22:21:12.849Z,10.40
2023-01-09T22:23:39.570Z,10.40
2023-01-09T22:26:11.468Z,10.40
2023-01-09T22:28:38.587Z,10.40
2023-01-09T22:31:21.082Z,10.40
2023-01-09T22:33:52.112Z,10.60
2023-01-09T22:36:19.552Z,10.60
2023-01-09T22:38:46.928Z,10.60
2023-01-09T22:41:13.933Z,10.70
2023-01-09T22:43:40.851Z,10.90
2023-01-09T22:46:11.295Z,10.90
2023-01-09T22:48:39.319Z,10.90
2023-01-09T22:51:14.386Z,11.10
2023-01-09T22:53:41.843Z,11.10
2023-01-09T22:56:12.108Z,11.10
2023-01-09T22:58:39.099Z,11.20
2023-01-09T23:01:06.559Z,11.20
2023-01-09T23:03:33.456Z,11.10
2023-01-09T23:06:08.517Z,11.10
2023-01-09T23:08:35.738Z,11.10
2023-01-09T23:11:05.740Z,11.00
2023-01-09T23:13:32.478Z,11.00
2023-01-09T23:16:00.295Z,10.90
2023-01-09T23:18:27.085Z,11.00
2023-01-09T23:20:59.142Z,11.00
2023-01-09T23:23:27.498Z,11.00
2023-01-09T23:25:57.630Z,11.00
2023-01-09T23:28:25.483Z,10.90
2023-01-09T23:30:52.354Z,11.00
2023-01-09T23:33:22.376Z,10.90
2023-01-09T23:35:49.094Z,11.00
2023-01-09T23:38:16.070Z,11.00
2023-01-09T23:40:43.018Z,11.00
2023-01-09T23:43:14.668Z,10.90
2023-01-09T23:45:45.548Z,11.00
2023-01-09T23:48:14.390Z,11.00
2023-01-09T23:50:52.661Z,11.00
2023-01-09T23:53:21.549Z,11.00
2023-01-09T23:55:49.078Z,11.00
2023-01-09T23:58:16.166Z,11.10
